sensor_id;sensor_type;location;lat;lon;timestamp;pressure;altitude;pressure_sealevel;temperature;humidity
32324;BME280;25666;44.350;9.222;2023-02-15T00:01:10;103278.97;;;5.48;100.00
32324;BME280;25666;44.350;9.222;2023-02-15T00:03:36;103273.72;;;5.52;100.00
32324;BME280;25666;44.350;9.222;2023-02-15T00:06:03;103283.84;;;5.63;100.00
32324;BME280;25666;44.350;9.222;2023-02-15T00:08:29;103274.78;;;5.67;100.00
32324;BME280;25666;44.350;9.222;2023-02-15T00:11:03;103273.50;;;5.75;100.00
32324;BME280;25666;44.350;9.222;2023-02-15T00:13:29;103267.41;;;5.73;100.00
32324;BME280;25666;44.350;9.222;2023-02-15T00:16:00;103275.72;;;5.73;100.00
32324;BME280;25666;44.350;9.222;2023-02-15T00:18:26;103267.72;;;5.76;100.00
32324;BME280;25666;44.350;9.222;2023-02-15T00:20:51;103260.16;;;5.67;100.00
32324;BME280;25666;44.350;9.222;2023-02-15T00:23:17;103256.56;;;5.66;100.00
32324;BME280;25666;44.350;9.222;2023-02-15T00:25:42;103252.09;;;5.65;100.00
32324;BME280;25666;44.350;9.222;2023-02-15T00:28:08;103258.28;;;5.72;100.00
32324;BME280;25666;44.350;9.222;2023-02-15T00:30:33;103252.16;;;5.70;100.00
32324;BME280;25666;44.350;9.222;2023-02-15T00:32:59;103260.97;;;5.67;100.00
32324;BME280;25666;44.350;9.222;2023-02-15T00:35:25;103252.63;;;5.62;100.00
32324;BME280;25666;44.350;9.222;2023-02-15T00:37:50;103253.66;;;5.56;100.00
32324;BME280;25666;44.350;9.222;2023-02-15T00:40:18;103253.00;;;5.49;100.00
32324;BME280;25666;44.350;9.222;2023-02-15T00:42:43;103249.66;;;5.47;100.00
32324;BME280;25666;44.350;9.222;2023-02-15T00:45:09;103248.06;;;5.51;100.00
32324;BME280;25666;44.350;9.222;2023-02-15T00:47:34;103244.69;;;5.49;100.00
32324;BME280;25666;44.350;9.222;2023-02-15T00:50:00;103250.41;;;5.43;100.00
32324;BME280;25666;44.350;9.222;2023-02-15T00:52:25;103249.50;;;5.37;100.00
32324;BME280;25666;44.350;9.222;2023-02-15T00:54:50;103257.16;;;5.52;100.00
32324;BME280;25666;44.350;9.222;2023-02-15T00:57:16;103245.94;;;5.58;100.00
32324;BME280;25666;44.350;9.222;2023-02-15T00:59:41;103257.31;;;5.62;100.00
32324;BME280;25666;44.350;9.222;2023-02-15T01:02:07;103246.59;;;5.65;100.00
32324;BME280;25666;44.350;9.222;2023-02-15T01:04:32;103249.38;;;5.49;100.00
32324;BME280;25666;44.350;9.222;2023-02-15T01:06:58;103259.13;;;5.51;100.00
32324;BME280;25666;44.350;9.222;2023-02-15T01:09:23;103255.75;;;5.49;100.00
32324;BME280;25666;44.350;9.222;2023-02-15T01:11:49;103254.28;;;5.42;100.00
32324;BME280;25666;44.350;9.222;2023-02-15T01:14:14;103257.47;;;5.33;100.00
32324;BME280;25666;44.350;9.222;2023-02-15T01:16:40;103248.09;;;5.34;100.00
32324;BME280;25666;44.350;9.222;2023-02-15T01:19:06;103254.78;;;5.38;100.00
32324;BME280;25666;44.350;9.222;2023-02-15T01:21:31;103253.28;;;5.31;100.00
32324;BME280;25666;44.350;9.222;2023-02-15T01:24:00;103252.44;;;5.30;100.00
32324;BME280;25666;44.350;9.222;2023-02-15T01:26:26;103243.16;;;5.36;100.00
32324;BME280;25666;44.350;9.222;2023-02-15T01:28:51;103247.59;;;5.37;100.00
32324;BME280;25666;44.350;9.222;2023-02-15T01:31:19;103237.59;;;5.15;100.00
32324;BME280;25666;44.350;9.222;2023-02-15T01:33:47;103245.63;;;5.16;100.00
32324;BME280;25666;44.350;9.222;2023-02-15T01:36:13;103237.91;;;5.18;100.00
32324;BME280;25666;44.350;9.222;2023-02-15T01:38:39;103236.31;;;5.22;100.00
32324;BME280;25666;44.350;9.222;2023-02-15T01:41:07;103230.13;;;5.32;100.00
32324;BME280;25666;44.350;9.222;2023-02-15T01:43:48;103239.47;;;5.31;100.00
32324;BME280;25666;44.350;9.222;2023-02-15T01:46:16;103238.06;;;5.28;100.00
32324;BME280;25666;44.350;9.222;2023-02-15T01:48:54;103231.94;;;5.26;100.00
32324;BME280;25666;44.350;9.222;2023-02-15T01:51:23;103222.41;;;5.34;100.00
32324;BME280;25666;44.350;9.222;2023-02-15T01:54:01;103221.69;;;5.22;100.00
32324;BME280;25666;44.350;9.222;2023-02-15T01:56:31;103224.84;;;5.14;100.00
32324;BME280;25666;44.350;9.222;2023-02-15T01:59:00;103213.94;;;5.02;100.00
32324;BME280;25666;44.350;9.222;2023-02-15T02:01:29;103206.72;;;5.01;100.00
32324;BME280;25666;44.350;9.222;2023-02-15T02:06:37;103201.97;;;4.97;100.00
32324;BME280;25666;44.350;9.222;2023-02-15T02:09:05;103199.78;;;4.99;100.00
32324;BME280;25666;44.350;9.222;2023-02-15T02:11:32;103204.56;;;5.03;100.00
32324;BME280;25666;44.350;9.222;2023-02-15T02:13:58;103197.19;;;5.09;100.00
32324;BME280;25666;44.350;9.222;2023-02-15T02:25:03;103190.97;;;5.18;100.00
32324;BME280;25666;44.350;9.222;2023-02-15T02:27:39;103188.72;;;5.15;100.00
32324;BME280;25666;44.350;9.222;2023-02-15T02:35:48;103180.78;;;5.19;100.00
32324;BME280;25666;44.350;9.222;2023-02-15T02:44:04;103169.28;;;5.27;100.00
32324;BME280;25666;44.350;9.222;2023-02-15T02:46:57;103161.50;;;5.24;100.00
32324;BME280;25666;44.350;9.222;2023-02-15T02:49:41;103159.97;;;5.11;100.00
32324;BME280;25666;44.350;9.222;2023-02-15T02:52:41;103157.13;;;5.06;100.00
32324;BME280;25666;44.350;9.222;2023-02-15T02:55:31;103151.78;;;5.00;100.00
32324;BME280;25666;44.350;9.222;2023-02-15T02:58:05;103160.66;;;5.02;100.00
32324;BME280;25666;44.350;9.222;2023-02-15T03:00:40;103158.34;;;4.94;100.00
32324;BME280;25666;44.350;9.222;2023-02-15T03:03:13;103163.00;;;4.93;100.00
32324;BME280;25666;44.350;9.222;2023-02-15T03:05:44;103162.69;;;4.90;100.00
32324;BME280;25666;44.350;9.222;2023-02-15T03:08:14;103159.41;;;4.93;100.00
32324;BME280;25666;44.350;9.222;2023-02-15T03:10:48;103156.75;;;4.98;100.00
32324;BME280;25666;44.350;9.222;2023-02-15T03:13:14;103158.22;;;5.05;100.00
32324;BME280;25666;44.350;9.222;2023-02-15T03:15:41;103153.69;;;5.16;100.00
32324;BME280;25666;44.350;9.222;2023-02-15T03:18:35;103153.69;;;5.16;100.00
32324;BME280;25666;44.350;9.222;2023-02-15T03:21:02;103143.34;;;5.06;100.00
32324;BME280;25666;44.350;9.222;2023-02-15T03:23:30;103147.63;;;4.97;100.00
32324;BME280;25666;44.350;9.222;2023-02-15T03:26:01;103138.25;;;4.98;100.00
32324;BME280;25666;44.350;9.222;2023-02-15T03:28:35;103143.47;;;4.95;100.00
32324;BME280;25666;44.350;9.222;2023-02-15T03:31:05;103142.53;;;4.89;100.00
32324;BME280;25666;44.350;9.222;2023-02-15T03:33:32;103136.09;;;4.83;100.00
32324;BME280;25666;44.350;9.222;2023-02-15T03:36:29;103138.28;;;4.81;100.00
32324;BME280;25666;44.350;9.222;2023-02-15T03:39:05;103130.69;;;4.72;100.00
32324;BME280;25666;44.350;9.222;2023-02-15T03:41:38;103131.28;;;4.74;100.00
32324;BME280;25666;44.350;9.222;2023-02-15T03:44:13;103132.28;;;4.84;100.00
32324;BME280;25666;44.350;9.222;2023-02-15T03:46:48;103125.34;;;4.82;100.00
32324;BME280;25666;44.350;9.222;2023-02-15T03:49:21;103124.75;;;4.80;100.00
32324;BME280;25666;44.350;9.222;2023-02-15T03:51:50;103124.50;;;4.81;100.00
32324;BME280;25666;44.350;9.222;2023-02-15T03:54:26;103119.72;;;4.77;100.00
32324;BME280;25666;44.350;9.222;2023-02-15T03:57:26;103120.97;;;4.86;100.00
32324;BME280;25666;44.350;9.222;2023-02-15T04:03:12;103116.81;;;4.67;100.00
32324;BME280;25666;44.350;9.222;2023-02-15T04:05:43;103115.56;;;4.58;100.00
32324;BME280;25666;44.350;9.222;2023-02-15T04:08:10;103117.81;;;4.61;100.00
32324;BME280;25666;44.350;9.222;2023-02-15T04:10:35;103119.94;;;4.54;100.00
32324;BME280;25666;44.350;9.222;2023-02-15T04:13:31;103108.97;;;4.59;100.00
32324;BME280;25666;44.350;9.222;2023-02-15T04:15:57;103113.75;;;4.63;100.00
32324;BME280;25666;44.350;9.222;2023-02-15T04:18:33;103106.56;;;4.62;100.00
32324;BME280;25666;44.350;9.222;2023-02-15T04:21:18;103107.28;;;4.74;100.00
32324;BME280;25666;44.350;9.222;2023-02-15T04:24:03;103115.25;;;4.93;100.00
32324;BME280;25666;44.350;9.222;2023-02-15T04:26:47;103118.38;;;4.79;100.00
32324;BME280;25666;44.350;9.222;2023-02-15T04:29:14;103119.50;;;4.78;100.00
32324;BME280;25666;44.350;9.222;2023-02-15T04:31:40;103113.88;;;4.73;100.00
32324;BME280;25666;44.350;9.222;2023-02-15T04:34:06;103106.19;;;4.75;100.00
32324;BME280;25666;44.350;9.222;2023-02-15T04:36:31;103108.63;;;4.72;100.00
32324;BME280;25666;44.350;9.222;2023-02-15T04:38:57;103107.41;;;4.63;100.00
32324;BME280;25666;44.350;9.222;2023-02-15T04:41:22;103102.78;;;4.68;100.00
32324;BME280;25666;44.350;9.222;2023-02-15T04:43:48;103104.53;;;4.74;100.00
32324;BME280;25666;44.350;9.222;2023-02-15T04:46:13;103107.13;;;4.64;100.00
32324;BME280;25666;44.350;9.222;2023-02-15T04:48:39;103106.22;;;4.59;100.00
32324;BME280;25666;44.350;9.222;2023-02-15T04:51:07;103105.22;;;4.65;100.00
32324;BME280;25666;44.350;9.222;2023-02-15T04:53:33;103111.50;;;4.60;100.00
32324;BME280;25666;44.350;9.222;2023-02-15T04:55:59;103118.50;;;4.51;100.00
32324;BME280;25666;44.350;9.222;2023-02-15T04:58:24;103117.25;;;4.42;100.00
32324;BME280;25666;44.350;9.222;2023-02-15T05:00:50;103113.75;;;4.47;100.00
32324;BME280;25666;44.350;9.222;2023-02-15T05:03:15;103113.25;;;4.50;100.00
32324;BME280;25666;44.350;9.222;2023-02-15T05:05:40;103117.25;;;4.42;100.00
32324;BME280;25666;44.350;9.222;2023-02-15T05:08:06;103116.44;;;4.42;100.00
32324;BME280;25666;44.350;9.222;2023-02-15T05:10:34;103112.69;;;4.48;100.00
32324;BME280;25666;44.350;9.222;2023-02-15T05:13:00;103116.75;;;4.45;100.00
32324;BME280;25666;44.350;9.222;2023-02-15T05:15:25;103119.59;;;4.33;100.00
32324;BME280;25666;44.350;9.222;2023-02-15T05:17:51;103107.75;;;4.33;100.00
32324;BME280;25666;44.350;9.222;2023-02-15T05:20:16;103122.03;;;4.30;100.00
32324;BME280;25666;44.350;9.222;2023-02-15T05:22:42;103119.88;;;4.32;100.00
32324;BME280;25666;44.350;9.222;2023-02-15T05:25:08;103118.94;;;4.43;100.00
32324;BME280;25666;44.350;9.222;2023-02-15T05:27:52;103125.56;;;4.25;100.00
32324;BME280;25666;44.350;9.222;2023-02-15T05:30:36;103128.66;;;4.29;100.00
32324;BME280;25666;44.350;9.222;2023-02-15T05:33:02;103139.66;;;4.29;100.00
32324;BME280;25666;44.350;9.222;2023-02-15T05:35:27;103131.88;;;4.43;100.00
32324;BME280;25666;44.350;9.222;2023-02-15T05:37:53;103139.66;;;4.29;100.00
32324;BME280;25666;44.350;9.222;2023-02-15T05:40:18;103150.50;;;4.36;100.00
32324;BME280;25666;44.350;9.222;2023-02-15T05:42:43;103144.25;;;4.40;100.00
32324;BME280;25666;44.350;9.222;2023-02-15T05:45:09;103148.34;;;4.54;100.00
32324;BME280;25666;44.350;9.222;2023-02-15T05:47:35;103158.22;;;4.50;100.00
32324;BME280;25666;44.350;9.222;2023-02-15T05:50:00;103157.22;;;4.56;100.00
32324;BME280;25666;44.350;9.222;2023-02-15T05:52:26;103158.69;;;4.64;100.00
32324;BME280;25666;44.350;9.222;2023-02-15T05:54:51;103153.84;;;4.71;100.00
32324;BME280;25666;44.350;9.222;2023-02-15T05:57:17;103157.38;;;4.66;100.00
32324;BME280;25666;44.350;9.222;2023-02-15T05:59:42;103158.97;;;4.62;100.00
32324;BME280;25666;44.350;9.222;2023-02-15T06:02:07;103154.78;;;4.60;100.00
32324;BME280;25666;44.350;9.222;2023-02-15T06:04:33;103151.03;;;4.49;100.00
32324;BME280;25666;44.350;9.222;2023-02-15T06:06:58;103160.28;;;4.26;100.00
32324;BME280;25666;44.350;9.222;2023-02-15T06:09:24;103168.69;;;4.20;100.00
32324;BME280;25666;44.350;9.222;2023-02-15T06:11:49;103180.94;;;4.41;100.00
32324;BME280;25666;44.350;9.222;2023-02-15T06:14:15;103175.84;;;4.49;100.00
32324;BME280;25666;44.350;9.222;2023-02-15T06:16:40;103184.28;;;4.43;100.00
32324;BME280;25666;44.350;9.222;2023-02-15T06:19:06;103186.97;;;4.38;100.00
32324;BME280;25666;44.350;9.222;2023-02-15T06:21:32;103186.78;;;4.44;100.00
32324;BME280;25666;44.350;9.222;2023-02-15T06:23:57;103186.53;;;4.46;100.00
32324;BME280;25666;44.350;9.222;2023-02-15T06:26:23;103195.91;;;4.45;100.00
32324;BME280;25666;44.350;9.222;2023-02-15T06:28:48;103200.59;;;4.44;100.00
32324;BME280;25666;44.350;9.222;2023-02-15T06:31:13;103198.31;;;4.58;100.00
32324;BME280;25666;44.350;9.222;2023-02-15T06:33:39;103197.97;;;4.54;100.00
32324;BME280;25666;44.350;9.222;2023-02-15T06:36:04;103203.59;;;4.59;100.00
32324;BME280;25666;44.350;9.222;2023-02-15T06:38:30;103193.91;;;4.57;100.00
32324;BME280;25666;44.350;9.222;2023-02-15T06:40:55;103207.25;;;4.65;100.00
32324;BME280;25666;44.350;9.222;2023-02-15T06:43:21;103209.53;;;4.68;100.00
32324;BME280;25666;44.350;9.222;2023-02-15T06:45:48;103206.03;;;4.72;100.00
32324;BME280;25666;44.350;9.222;2023-02-15T06:48:14;103215.78;;;4.80;100.00
32324;BME280;25666;44.350;9.222;2023-02-15T06:50:40;103208.19;;;4.87;100.00
32324;BME280;25666;44.350;9.222;2023-02-15T06:53:05;103215.03;;;4.84;100.00
32324;BME280;25666;44.350;9.222;2023-02-15T06:55:31;103209.41;;;4.96;100.00
32324;BME280;25666;44.350;9.222;2023-02-15T06:57:56;103210.94;;;5.04;100.00
32324;BME280;25666;44.350;9.222;2023-02-15T07:00:22;103211.00;;;5.09;100.00
32324;BME280;25666;44.350;9.222;2023-02-15T07:02:53;103210.75;;;5.10;100.00
32324;BME280;25666;44.350;9.222;2023-02-15T07:05:21;103203.72;;;5.19;100.00
32324;BME280;25666;44.350;9.222;2023-02-15T07:07:47;103201.97;;;5.13;100.00
32324;BME280;25666;44.350;9.222;2023-02-15T07:10:12;103205.81;;;5.12;100.00
32324;BME280;25666;44.350;9.222;2023-02-15T07:12:38;103204.34;;;5.26;100.00
32324;BME280;25666;44.350;9.222;2023-02-15T07:15:14;103203.59;;;5.31;100.00
32324;BME280;25666;44.350;9.222;2023-02-15T07:17:41;103201.22;;;5.39;100.00
32324;BME280;25666;44.350;9.222;2023-02-15T07:20:10;103205.88;;;5.39;100.00
32324;BME280;25666;44.350;9.222;2023-02-15T07:22:35;103199.09;;;5.47;100.00
32324;BME280;25666;44.350;9.222;2023-02-15T07:25:03;103191.78;;;5.57;100.00
32324;BME280;25666;44.350;9.222;2023-02-15T07:27:30;103200.66;;;5.59;100.00
32324;BME280;25666;44.350;9.222;2023-02-15T07:29:56;103195.16;;;5.64;100.00
32324;BME280;25666;44.350;9.222;2023-02-15T07:32:31;103195.38;;;5.79;100.00
32324;BME280;25666;44.350;9.222;2023-02-15T07:34:58;103193.25;;;5.86;100.00
32324;BME280;25666;44.350;9.222;2023-02-15T07:37:24;103186.81;;;5.81;100.00
32324;BME280;25666;44.350;9.222;2023-02-15T07:39:49;103201.34;;;5.93;100.00
32324;BME280;25666;44.350;9.222;2023-02-15T07:42:15;103193.75;;;6.05;100.00
32324;BME280;25666;44.350;9.222;2023-02-15T07:44:41;103196.31;;;6.12;100.00
32324;BME280;25666;44.350;9.222;2023-02-15T07:47:09;103196.66;;;6.20;100.00
32324;BME280;25666;44.350;9.222;2023-02-15T07:49:35;103186.81;;;6.29;100.00
32324;BME280;25666;44.350;9.222;2023-02-15T07:52:01;103192.06;;;6.31;100.00
32324;BME280;25666;44.350;9.222;2023-02-15T07:54:27;103190.78;;;6.38;100.00
32324;BME280;25666;44.350;9.222;2023-02-15T07:56:52;103192.47;;;6.44;100.00
32324;BME280;25666;44.350;9.222;2023-02-15T07:59:18;103193.69;;;6.59;100.00
32324;BME280;25666;44.350;9.222;2023-02-15T08:01:43;103187.38;;;6.63;100.00
32324;BME280;25666;44.350;9.222;2023-02-15T08:04:09;103189.94;;;6.70;100.00
32324;BME280;25666;44.350;9.222;2023-02-15T08:06:37;103180.25;;;6.72;100.00
32324;BME280;25666;44.350;9.222;2023-02-15T08:09:05;103185.88;;;6.82;100.00
32324;BME280;25666;44.350;9.222;2023-02-15T08:11:33;103188.13;;;6.90;100.00
32324;BME280;25666;44.350;9.222;2023-02-15T08:16:46;103180.75;;;7.06;100.00
32324;BME280;25666;44.350;9.222;2023-02-15T08:21:54;103180.59;;;7.23;100.00
32324;BME280;25666;44.350;9.222;2023-02-15T08:24:22;103173.97;;;7.29;100.00
32324;BME280;25666;44.350;9.222;2023-02-15T08:26:48;103169.59;;;7.38;100.00
32324;BME280;25666;44.350;9.222;2023-02-15T08:29:16;103173.22;;;7.43;100.00
32324;BME280;25666;44.350;9.222;2023-02-15T08:31:41;103185.97;;;7.49;100.00
32324;BME280;25666;44.350;9.222;2023-02-15T08:34:13;103182.97;;;7.56;100.00
32324;BME280;25666;44.350;9.222;2023-02-15T08:36:39;103180.50;;;7.65;100.00
32324;BME280;25666;44.350;9.222;2023-02-15T08:39:06;103184.41;;;7.74;100.00
32324;BME280;25666;44.350;9.222;2023-02-15T08:41:33;103176.41;;;7.82;100.00
32324;BME280;25666;44.350;9.222;2023-02-15T08:44:07;103185.31;;;7.94;100.00
32324;BME280;25666;44.350;9.222;2023-02-15T08:46:35;103176.75;;;8.06;100.00
32324;BME280;25666;44.350;9.222;2023-02-15T08:49:01;103166.22;;;8.13;100.00
32324;BME280;25666;44.350;9.222;2023-02-15T08:51:32;103171.78;;;8.23;100.00
32324;BME280;25666;44.350;9.222;2023-02-15T08:54:00;103172.94;;;8.37;100.00
32324;BME280;25666;44.350;9.222;2023-02-15T08:56:28;103164.88;;;8.41;100.00
32324;BME280;25666;44.350;9.222;2023-02-15T08:58:54;103165.44;;;8.53;100.00
32324;BME280;25666;44.350;9.222;2023-02-15T09:01:24;103163.50;;;8.64;100.00
32324;BME280;25666;44.350;9.222;2023-02-15T09:03:56;103152.41;;;8.74;100.00
32324;BME280;25666;44.350;9.222;2023-02-15T09:06:22;103147.94;;;8.83;100.00
32324;BME280;25666;44.350;9.222;2023-02-15T09:08:49;103145.13;;;8.98;100.00
32324;BME280;25666;44.350;9.222;2023-02-15T09:11:20;103142.88;;;9.10;100.00
32324;BME280;25666;44.350;9.222;2023-02-15T09:13:54;103150.06;;;9.16;100.00
32324;BME280;25666;44.350;9.222;2023-02-15T09:16:21;103142.81;;;9.25;100.00
32324;BME280;25666;44.350;9.222;2023-02-15T09:18:47;103141.97;;;9.35;100.00
32324;BME280;25666;44.350;9.222;2023-02-15T09:21:16;103142.16;;;9.58;100.00
32324;BME280;25666;44.350;9.222;2023-02-15T09:23:43;103135.34;;;9.75;100.00
32324;BME280;25666;44.350;9.222;2023-02-15T09:26:14;103138.56;;;9.97;100.00
32324;BME280;25666;44.350;9.222;2023-02-15T09:28:40;103140.19;;;10.08;100.00
32324;BME280;25666;44.350;9.222;2023-02-15T09:31:07;103138.41;;;10.22;100.00
32324;BME280;25666;44.350;9.222;2023-02-15T09:33:34;103149.75;;;10.31;100.00
32324;BME280;25666;44.350;9.222;2023-02-15T09:36:00;103134.13;;;10.40;100.00
32324;BME280;25666;44.350;9.222;2023-02-15T09:38:26;103143.28;;;10.40;100.00
32324;BME280;25666;44.350;9.222;2023-02-15T09:43:46;103146.50;;;10.57;100.00
32324;BME280;25666;44.350;9.222;2023-02-15T09:55:01;103147.00;;;10.64;100.00
32324;BME280;25666;44.350;9.222;2023-02-15T10:00:46;103140.84;;;10.67;100.00
32324;BME280;25666;44.350;9.222;2023-02-15T10:03:33;103136.31;;;10.71;100.00
32324;BME280;25666;44.350;9.222;2023-02-15T10:06:12;103128.19;;;10.80;100.00
32324;BME280;25666;44.350;9.222;2023-02-15T10:14:46;103125.41;;;10.80;100.00
32324;BME280;25666;44.350;9.222;2023-02-15T10:20:08;103114.38;;;10.94;100.00
32324;BME280;25666;44.350;9.222;2023-02-15T10:23:02;103114.59;;;10.97;100.00
32324;BME280;25666;44.350;9.222;2023-02-15T10:25:42;103106.50;;;11.01;100.00
32324;BME280;25666;44.350;9.222;2023-02-15T10:28:17;103107.03;;;11.26;100.00
32324;BME280;25666;44.350;9.222;2023-02-15T10:30:47;103108.09;;;11.31;100.00
32324;BME280;25666;44.350;9.222;2023-02-15T10:33:40;103103.66;;;11.29;100.00
32324;BME280;25666;44.350;9.222;2023-02-15T10:38:53;103105.75;;;11.38;100.00
32324;BME280;25666;44.350;9.222;2023-02-15T10:41:46;103103.13;;;11.27;100.00
32324;BME280;25666;44.350;9.222;2023-02-15T10:47:22;103100.84;;;11.29;100.00
32324;BME280;25666;44.350;9.222;2023-02-15T10:53:04;103098.63;;;11.50;100.00
32324;BME280;25666;44.350;9.222;2023-02-15T10:56:12;103103.69;;;11.48;100.00
32324;BME280;25666;44.350;9.222;2023-02-15T11:01:52;103093.97;;;11.46;100.00
32324;BME280;25666;44.350;9.222;2023-02-15T11:07:08;103092.53;;;11.48;100.00
32324;BME280;25666;44.350;9.222;2023-02-15T11:09:42;103088.81;;;11.53;100.00
32324;BME280;25666;44.350;9.222;2023-02-15T11:12:13;103082.72;;;11.51;100.00
32324;BME280;25666;44.350;9.222;2023-02-15T11:17:41;103080.44;;;11.53;100.00
32324;BME280;25666;44.350;9.222;2023-02-15T11:20:23;103077.13;;;11.51;100.00
32324;BME280;25666;44.350;9.222;2023-02-15T11:22:51;103074.50;;;11.59;100.00
32324;BME280;25666;44.350;9.222;2023-02-15T11:25:29;103078.44;;;11.58;100.00
32324;BME280;25666;44.350;9.222;2023-02-15T11:27:55;103073.16;;;11.57;100.00
32324;BME280;25666;44.350;9.222;2023-02-15T11:30:23;103075.06;;;11.61;100.00
32324;BME280;25666;44.350;9.222;2023-02-15T11:32:52;103065.00;;;11.60;100.00
32324;BME280;25666;44.350;9.222;2023-02-15T11:35:26;103073.53;;;11.69;100.00
32324;BME280;25666;44.350;9.222;2023-02-15T11:38:24;103068.06;;;11.82;100.00
32324;BME280;25666;44.350;9.222;2023-02-15T11:41:02;103066.78;;;11.75;100.00
32324;BME280;25666;44.350;9.222;2023-02-15T11:43:39;103066.63;;;11.85;100.00
32324;BME280;25666;44.350;9.222;2023-02-15T11:46:08;103060.53;;;11.83;100.00
32324;BME280;25666;44.350;9.222;2023-02-15T11:48:35;103060.44;;;11.88;100.00
32324;BME280;25666;44.350;9.222;2023-02-15T11:51:02;103060.81;;;11.81;100.00
32324;BME280;25666;44.350;9.222;2023-02-15T11:53:32;103058.56;;;11.84;100.00
32324;BME280;25666;44.350;9.222;2023-02-15T11:55:59;103060.81;;;11.81;100.00
32324;BME280;25666;44.350;9.222;2023-02-15T11:58:28;103058.78;;;11.87;100.00
32324;BME280;25666;44.350;9.222;2023-02-15T12:01:04;103060.06;;;11.95;100.00
32324;BME280;25666;44.350;9.222;2023-02-15T12:03:46;103058.56;;;12.02;100.00
32324;BME280;25666;44.350;9.222;2023-02-15T12:06:34;103057.03;;;11.91;100.00
32324;BME280;25666;44.350;9.222;2023-02-15T12:09:06;103056.06;;;12.01;100.00
32324;BME280;25666;44.350;9.222;2023-02-15T12:11:39;103050.78;;;11.99;100.00
32324;BME280;25666;44.350;9.222;2023-02-15T12:14:10;103053.03;;;11.97;100.00
32324;BME280;25666;44.350;9.222;2023-02-15T12:16:45;103052.81;;;11.94;100.00
32324;BME280;25666;44.350;9.222;2023-02-15T12:19:32;103043.09;;;11.91;100.00
32324;BME280;25666;44.350;9.222;2023-02-15T12:22:03;103049.56;;;12.05;100.00
32324;BME280;25666;44.350;9.222;2023-02-15T12:24:32;103044.28;;;12.04;100.00
32324;BME280;25666;44.350;9.222;2023-02-15T12:27:01;103044.22;;;12.09;100.00
32324;BME280;25666;44.350;9.222;2023-02-15T12:29:50;103040.47;;;12.13;100.00
32324;BME280;25666;44.350;9.222;2023-02-15T12:32:28;103046.16;;;12.08;100.00
32324;BME280;25666;44.350;9.222;2023-02-15T12:35:00;103041.84;;;12.16;100.00
32324;BME280;25666;44.350;9.222;2023-02-15T12:37:29;103037.19;;;12.25;100.00
32324;BME280;25666;44.350;9.222;2023-02-15T12:40:02;103037.19;;;12.11;100.00
32324;BME280;25666;44.350;9.222;2023-02-15T12:42:41;103033.16;;;12.17;100.00
32324;BME280;25666;44.350;9.222;2023-02-15T12:45:21;103035.97;;;12.17;100.00
32324;BME280;25666;44.350;9.222;2023-02-15T12:47:52;103037.00;;;12.21;100.00
32324;BME280;25666;44.350;9.222;2023-02-15T12:50:32;103034.72;;;12.23;100.00
32324;BME280;25666;44.350;9.222;2023-02-15T12:55:49;103033.28;;;12.26;100.00
32324;BME280;25666;44.350;9.222;2023-02-15T12:58:17;103022.44;;;12.24;100.00
32324;BME280;25666;44.350;9.222;2023-02-15T13:00:44;103022.44;;;12.24;100.00
32324;BME280;25666;44.350;9.222;2023-02-15T13:03:24;103027.19;;;12.24;100.00
32324;BME280;25666;44.350;9.222;2023-02-15T13:05:55;103026.47;;;12.18;100.00
32324;BME280;25666;44.350;9.222;2023-02-15T13:08:32;103019.09;;;12.22;100.00
32324;BME280;25666;44.350;9.222;2023-02-15T13:13:29;103016.75;;;12.29;100.00
32324;BME280;25666;44.350;9.222;2023-02-15T13:16:02;103006.19;;;12.26;100.00
32324;BME280;25666;44.350;9.222;2023-02-15T13:18:39;103009.28;;;12.25;100.00
32324;BME280;25666;44.350;9.222;2023-02-15T13:21:18;103013.63;;;12.31;100.00
32324;BME280;25666;44.350;9.222;2023-02-15T13:23:51;103012.06;;;12.25;100.00
32324;BME280;25666;44.350;9.222;2023-02-15T13:26:21;103007.66;;;12.24;100.00
32324;BME280;25666;44.350;9.222;2023-02-15T13:28:51;103000.72;;;12.21;100.00
32324;BME280;25666;44.350;9.222;2023-02-15T13:31:20;103004.69;;;12.15;100.00
32324;BME280;25666;44.350;9.222;2023-02-15T13:33:52;103004.41;;;12.17;100.00
32324;BME280;25666;44.350;9.222;2023-02-15T13:42:13;102992.63;;;12.20;100.00
32324;BME280;25666;44.350;9.222;2023-02-15T13:48:04;102989.63;;;12.16;100.00
32324;BME280;25666;44.350;9.222;2023-02-15T13:54:07;102983.19;;;12.16;100.00
32324;BME280;25666;44.350;9.222;2023-02-15T13:56:35;102993.75;;;12.19;100.00
32324;BME280;25666;44.350;9.222;2023-02-15T13:59:33;102983.63;;;12.23;100.00
32324;BME280;25666;44.350;9.222;2023-02-15T14:10:34;102979.19;;;12.22;100.00
32324;BME280;25666;44.350;9.222;2023-02-15T14:18:54;102989.41;;;12.13;100.00
32324;BME280;25666;44.350;9.222;2023-02-15T14:21:38;102992.81;;;12.10;100.00
32324;BME280;25666;44.350;9.222;2023-02-15T14:26:49;102997.78;;;12.13;100.00
32324;BME280;25666;44.350;9.222;2023-02-15T14:31:50;102991.06;;;12.14;100.00
32324;BME280;25666;44.350;9.222;2023-02-15T14:34:24;102983.41;;;12.19;100.00
32324;BME280;25666;44.350;9.222;2023-02-15T14:36:53;102988.28;;;12.14;100.00
32324;BME280;25666;44.350;9.222;2023-02-15T14:45:04;102995.81;;;12.13;100.00
32324;BME280;25666;44.350;9.222;2023-02-15T14:47:35;102995.31;;;12.11;100.00
32324;BME280;25666;44.350;9.222;2023-02-15T14:55:39;103000.16;;;12.06;100.00
32324;BME280;25666;44.350;9.222;2023-02-15T14:58:10;102995.09;;;12.08;100.00
32324;BME280;25666;44.350;9.222;2023-02-15T15:00:37;102994.34;;;12.02;100.00
32324;BME280;25666;44.350;9.222;2023-02-15T15:03:11;102994.41;;;11.97;100.00
32324;BME280;25666;44.350;9.222;2023-02-15T15:05:48;102981.41;;;11.93;100.00